sensor_id;sensor_type;location;lat;lon;timestamp;P1;durP1;ratioP1;P2;durP2;ratioP2
64473;SDS011;50857;53.338;8.486;2022-08-01T00:01:46;4.60;;;2.20;;
64473;SDS011;50857;53.338;8.486;2022-08-01T00:04:12;4.55;;;1.70;;
64473;SDS011;50857;53.338;8.486;2022-08-01T00:06:39;6.25;;;2.70;;
64473;SDS011;50857;53.338;8.486;2022-08-01T00:09:05;5.07;;;2.88;;
64473;SDS011;50857;53.338;8.486;2022-08-01T00:11:32;5.95;;;2.22;;
64473;SDS011;50857;53.338;8.486;2022-08-01T00:13:58;6.00;;;2.67;;
64473;SDS011;50857;53.338;8.486;2022-08-01T00:16:25;4.50;;;1.90;;
64473;SDS011;50857;53.338;8.486;2022-08-01T00:18:53;5.43;;;2.30;;
64473;SDS011;50857;53.338;8.486;2022-08-01T00:21:20;5.15;;;2.42;;
64473;SDS011;50857;53.338;8.486;2022-08-01T00:23:46;5.50;;;2.10;;
64473;SDS011;50857;53.338;8.486;2022-08-01T00:26:13;5.45;;;2.20;;
64473;SDS011;50857;53.338;8.486;2022-08-01T00:28:40;5.60;;;2.80;;
64473;SDS011;50857;53.338;8.486;2022-08-01T00:31:07;5.50;;;2.20;;
64473;SDS011;50857;53.338;8.486;2022-08-01T00:33:33;5.78;;;2.42;;
64473;SDS011;50857;53.338;8.486;2022-08-01T00:36:01;4.90;;;1.90;;
64473;SDS011;50857;53.338;8.486;2022-08-01T00:38:27;5.90;;;2.88;;
64473;SDS011;50857;53.338;8.486;2022-08-01T00:40:54;4.88;;;1.90;;
64473;SDS011;50857;53.338;8.486;2022-08-01T00:43:21;4.97;;;2.38;;
64473;SDS011;50857;53.338;8.486;2022-08-01T00:45:47;4.60;;;2.20;;
64473;SDS011;50857;53.338;8.486;2022-08-01T00:48:14;3.75;;;1.52;;
64473;SDS011;50857;53.338;8.486;2022-08-01T00:50:40;4.93;;;1.98;;
64473;SDS011;50857;53.338;8.486;2022-08-01T00:53:08;3.97;;;1.70;;
64473;SDS011;50857;53.338;8.486;2022-08-01T00:55:35;4.57;;;1.92;;
64473;SDS011;50857;53.338;8.486;2022-08-01T00:58:01;4.57;;;1.80;;
64473;SDS011;50857;53.338;8.486;2022-08-01T01:00:28;5.32;;;2.08;;
64473;SDS011;50857;53.338;8.486;2022-08-01T01:02:54;4.30;;;2.00;;
64473;SDS011;50857;53.338;8.486;2022-08-01T01:05:21;4.10;;;1.92;;
64473;SDS011;50857;53.338;8.486;2022-08-01T01:07:48;4.30;;;1.80;;
64473;SDS011;50857;53.338;8.486;2022-08-01T01:10:20;4.47;;;1.80;;
64473;SDS011;50857;53.338;8.486;2022-08-01T01:12:50;4.95;;;1.88;;
64473;SDS011;50857;53.338;8.486;2022-08-01T01:15:18;5.50;;;1.83;;
64473;SDS011;50857;53.338;8.486;2022-08-01T01:17:51;4.53;;;2.10;;
64473;SDS011;50857;53.338;8.486;2022-08-01T01:20:20;4.82;;;2.00;;
64473;SDS011;50857;53.338;8.486;2022-08-01T01:22:50;4.38;;;1.95;;
64473;SDS011;50857;53.338;8.486;2022-08-01T01:25:30;4.15;;;1.90;;
64473;SDS011;50857;53.338;8.486;2022-08-01T01:28:02;4.20;;;1.90;;
64473;SDS011;50857;53.338;8.486;2022-08-01T01:30:31;5.43;;;2.05;;
64473;SDS011;50857;53.338;8.486;2022-08-01T01:33:00;4.50;;;2.20;;
64473;SDS011;50857;53.338;8.486;2022-08-01T01:35:28;4.47;;;2.33;;
64473;SDS011;50857;53.338;8.486;2022-08-01T01:37:58;4.45;;;2.00;;
64473;SDS011;50857;53.338;8.486;2022-08-01T01:40:26;4.00;;;1.77;;
64473;SDS011;50857;53.338;8.486;2022-08-01T01:42:52;4.60;;;2.00;;
64473;SDS011;50857;53.338;8.486;2022-08-01T01:45:21;4.70;;;2.05;;
64473;SDS011;50857;53.338;8.486;2022-08-01T01:47:51;4.78;;;2.03;;
64473;SDS011;50857;53.338;8.486;2022-08-01T01:50:19;4.03;;;1.77;;
64473;SDS011;50857;53.338;8.486;2022-08-01T01:52:46;5.97;;;2.00;;
64473;SDS011;50857;53.338;8.486;2022-08-01T01:55:12;4.00;;;1.80;;
64473;SDS011;50857;53.338;8.486;2022-08-01T01:57:41;4.70;;;1.90;;
64473;SDS011;50857;53.338;8.486;2022-08-01T02:00:10;5.13;;;2.15;;
64473;SDS011;50857;53.338;8.486;2022-08-01T02:02:37;5.55;;;2.05;;
64473;SDS011;50857;53.338;8.486;2022-08-01T02:05:06;5.10;;;2.53;;
64473;SDS011;50857;53.338;8.486;2022-08-01T02:07:34;3.90;;;1.50;;
64473;SDS011;50857;53.338;8.486;2022-08-01T02:10:02;5.47;;;2.40;;
64473;SDS011;50857;53.338;8.486;2022-08-01T02:12:29;4.90;;;2.03;;
64473;SDS011;50857;53.338;8.486;2022-08-01T02:14:58;4.90;;;2.20;;
64473;SDS011;50857;53.338;8.486;2022-08-01T02:17:25;4.15;;;1.77;;
64473;SDS011;50857;53.338;8.486;2022-08-01T02:19:53;4.47;;;2.25;;
64473;SDS011;50857;53.338;8.486;2022-08-01T02:22:22;5.32;;;2.20;;
64473;SDS011;50857;53.338;8.486;2022-08-01T02:24:54;4.80;;;2.55;;
64473;SDS011;50857;53.338;8.486;2022-08-01T02:27:22;5.00;;;2.40;;
64473;SDS011;50857;53.338;8.486;2022-08-01T02:29:52;5.68;;;2.38;;
64473;SDS011;50857;53.338;8.486;2022-08-01T02:32:20;5.00;;;2.20;;
64473;SDS011;50857;53.338;8.486;2022-08-01T02:34:49;4.95;;;2.30;;
64473;SDS011;50857;53.338;8.486;2022-08-01T02:37:17;5.35;;;2.67;;
64473;SDS011;50857;53.338;8.486;2022-08-01T02:39:45;5.65;;;2.30;;
64473;SDS011;50857;53.338;8.486;2022-08-01T02:42:13;6.78;;;2.53;;
64473;SDS011;50857;53.338;8.486;2022-08-01T02:44:41;4.88;;;2.47;;
64473;SDS011;50857;53.338;8.486;2022-08-01T02:47:08;4.82;;;2.15;;
64473;SDS011;50857;53.338;8.486;2022-08-01T02:49:36;5.22;;;2.50;;
64473;SDS011;50857;53.338;8.486;2022-08-01T02:52:05;4.53;;;2.17;;
64473;SDS011;50857;53.338;8.486;2022-08-01T02:54:33;5.05;;;2.38;;
64473;SDS011;50857;53.338;8.486;2022-08-01T02:57:01;4.78;;;2.33;;
64473;SDS011;50857;53.338;8.486;2022-08-01T02:59:28;4.70;;;1.85;;
64473;SDS011;50857;53.338;8.486;2022-08-01T03:01:55;4.55;;;1.90;;
64473;SDS011;50857;53.338;8.486;2022-08-01T03:04:23;5.47;;;2.00;;
64473;SDS011;50857;53.338;8.486;2022-08-01T03:06:49;5.13;;;2.10;;
64473;SDS011;50857;53.338;8.486;2022-08-01T03:09:17;3.90;;;1.48;;
64473;SDS011;50857;53.338;8.486;2022-08-01T03:11:45;4.13;;;1.70;;
64473;SDS011;50857;53.338;8.486;2022-08-01T03:14:14;3.88;;;1.52;;
64473;SDS011;50857;53.338;8.486;2022-08-01T03:16:41;4.25;;;1.60;;
64473;SDS011;50857;53.338;8.486;2022-08-01T03:19:08;4.80;;;1.60;;
64473;SDS011;50857;53.338;8.486;2022-08-01T03:21:35;4.80;;;1.70;;
64473;SDS011;50857;53.338;8.486;2022-08-01T03:24:03;4.85;;;1.75;;
64473;SDS011;50857;53.338;8.486;2022-08-01T03:26:32;5.95;;;1.67;;
64473;SDS011;50857;53.338;8.486;2022-08-01T03:29:02;5.10;;;1.70;;
64473;SDS011;50857;53.338;8.486;2022-08-01T03:31:30;4.68;;;1.60;;
64473;SDS011;50857;53.338;8.486;2022-08-01T03:33:57;4.43;;;1.67;;
64473;SDS011;50857;53.338;8.486;2022-08-01T03:36:24;4.47;;;1.60;;
64473;SDS011;50857;53.338;8.486;2022-08-01T03:38:52;4.22;;;1.60;;
64473;SDS011;50857;53.338;8.486;2022-08-01T03:41:19;5.28;;;1.58;;
64473;SDS011;50857;53.338;8.486;2022-08-01T03:43:48;4.47;;;1.40;;
64473;SDS011;50857;53.338;8.486;2022-08-01T03:46:17;3.75;;;1.20;;
64473;SDS011;50857;53.338;8.486;2022-08-01T03:48:46;4.22;;;1.30;;
64473;SDS011;50857;53.338;8.486;2022-08-01T03:51:13;3.97;;;1.20;;
64473;SDS011;50857;53.338;8.486;2022-08-01T03:53:41;3.28;;;1.10;;
64473;SDS011;50857;53.338;8.486;2022-08-01T03:56:08;4.10;;;1.10;;
64473;SDS011;50857;53.338;8.486;2022-08-01T03:58:35;4.28;;;1.30;;
64473;SDS011;50857;53.338;8.486;2022-08-01T04:01:02;3.78;;;1.20;;
64473;SDS011;50857;53.338;8.486;2022-08-01T04:03:29;5.22;;;1.38;;
64473;SDS011;50857;53.338;8.486;2022-08-01T04:05:57;3.03;;;1.00;;
64473;SDS011;50857;53.338;8.486;2022-08-01T04:08:33;4.78;;;1.27;;
64473;SDS011;50857;53.338;8.486;2022-08-01T04:10:59;4.57;;;1.20;;
64473;SDS011;50857;53.338;8.486;2022-08-01T04:13:26;3.20;;;1.00;;
64473;SDS011;50857;53.338;8.486;2022-08-01T04:15:52;3.33;;;1.05;;
64473;SDS011;50857;53.338;8.486;2022-08-01T04:18:19;5.30;;;1.10;;
64473;SDS011;50857;53.338;8.486;2022-08-01T04:20:46;3.60;;;1.00;;
64473;SDS011;50857;53.338;8.486;2022-08-01T04:23:13;4.50;;;1.15;;
64473;SDS011;50857;53.338;8.486;2022-08-01T04:25:41;3.30;;;1.10;;
64473;SDS011;50857;53.338;8.486;2022-08-01T04:28:09;3.80;;;1.13;;
64473;SDS011;50857;53.338;8.486;2022-08-01T04:30:41;5.07;;;1.10;;
64473;SDS011;50857;53.338;8.486;2022-08-01T04:33:07;3.50;;;1.10;;
64473;SDS011;50857;53.338;8.486;2022-08-01T04:35:35;4.38;;;1.10;;
64473;SDS011;50857;53.338;8.486;2022-08-01T04:38:02;4.30;;;1.20;;
64473;SDS011;50857;53.338;8.486;2022-08-01T04:40:31;3.55;;;1.20;;
64473;SDS011;50857;53.338;8.486;2022-08-01T04:42:58;6.03;;;1.30;;
64473;SDS011;50857;53.338;8.486;2022-08-01T04:45:25;4.13;;;1.10;;
64473;SDS011;50857;53.338;8.486;2022-08-01T04:47:52;5.00;;;1.50;;
64473;SDS011;50857;53.338;8.486;2022-08-01T04:50:18;5.18;;;1.30;;
64473;SDS011;50857;53.338;8.486;2022-08-01T04:52:46;4.93;;;1.55;;
64473;SDS011;50857;53.338;8.486;2022-08-01T04:55:13;6.95;;;1.83;;
64473;SDS011;50857;53.338;8.486;2022-08-01T04:57:41;4.30;;;1.35;;
64473;SDS011;50857;53.338;8.486;2022-08-01T05:00:09;6.55;;;1.88;;
64473;SDS011;50857;53.338;8.486;2022-08-01T05:02:35;6.20;;;2.10;;
64473;SDS011;50857;53.338;8.486;2022-08-01T05:05:02;5.88;;;1.45;;
64473;SDS011;50857;53.338;8.486;2022-08-01T05:07:31;5.90;;;1.60;;
64473;SDS011;50857;53.338;8.486;2022-08-01T05:09:57;5.03;;;1.27;;
64473;SDS011;50857;53.338;8.486;2022-08-01T05:12:23;6.30;;;1.40;;
64473;SDS011;50857;53.338;8.486;2022-08-01T05:14:51;4.55;;;1.40;;
64473;SDS011;50857;53.338;8.486;2022-08-01T05:17:18;6.50;;;1.58;;
64473;SDS011;50857;53.338;8.486;2022-08-01T05:19:44;6.40;;;1.73;;
64473;SDS011;50857;53.338;8.486;2022-08-01T05:22:11;5.97;;;1.55;;
64473;SDS011;50857;53.338;8.486;2022-08-01T05:24:38;7.65;;;1.25;;
64473;SDS011;50857;53.338;8.486;2022-08-01T05:27:05;5.90;;;1.52;;
64473;SDS011;50857;53.338;8.486;2022-08-01T05:29:31;6.20;;;1.70;;
64473;SDS011;50857;53.338;8.486;2022-08-01T05:31:59;7.18;;;1.70;;
64473;SDS011;50857;53.338;8.486;2022-08-01T05:34:26;8.02;;;1.67;;
64473;SDS011;50857;53.338;8.486;2022-08-01T05:36:53;6.53;;;1.50;;
64473;SDS011;50857;53.338;8.486;2022-08-01T05:39:19;6.82;;;1.80;;
64473;SDS011;50857;53.338;8.486;2022-08-01T05:41:45;11.00;;;2.00;;
64473;SDS011;50857;53.338;8.486;2022-08-01T05:44:12;11.95;;;3.08;;
64473;SDS011;50857;53.338;8.486;2022-08-01T05:46:38;13.15;;;3.10;;
64473;SDS011;50857;53.338;8.486;2022-08-01T05:49:06;15.77;;;4.55;;
64473;SDS011;50857;53.338;8.486;2022-08-01T05:51:32;17.02;;;6.43;;
64473;SDS011;50857;53.338;8.486;2022-08-01T05:53:59;15.00;;;5.93;;
64473;SDS011;50857;53.338;8.486;2022-08-01T05:56:26;12.13;;;5.00;;
64473;SDS011;50857;53.338;8.486;2022-08-01T05:58:52;13.13;;;4.43;;
64473;SDS011;50857;53.338;8.486;2022-08-01T06:01:19;14.00;;;4.88;;
64473;SDS011;50857;53.338;8.486;2022-08-01T06:03:45;14.95;;;4.18;;
64473;SDS011;50857;53.338;8.486;2022-08-01T06:06:13;11.35;;;3.80;;
64473;SDS011;50857;53.338;8.486;2022-08-01T06:08:40;12.48;;;4.10;;
64473;SDS011;50857;53.338;8.486;2022-08-01T06:11:06;12.55;;;3.90;;
64473;SDS011;50857;53.338;8.486;2022-08-01T06:13:33;11.52;;;3.60;;
64473;SDS011;50857;53.338;8.486;2022-08-01T06:15:59;11.93;;;3.58;;
64473;SDS011;50857;53.338;8.486;2022-08-01T06:18:26;11.35;;;2.75;;
64473;SDS011;50857;53.338;8.486;2022-08-01T06:20:52;10.60;;;2.67;;
64473;SDS011;50857;53.338;8.486;2022-08-01T06:23:21;13.68;;;3.33;;
64473;SDS011;50857;53.338;8.486;2022-08-01T06:25:47;12.85;;;3.30;;
64473;SDS011;50857;53.338;8.486;2022-08-01T06:28:14;10.77;;;3.15;;
64473;SDS011;50857;53.338;8.486;2022-08-01T06:30:40;10.60;;;2.72;;
64473;SDS011;50857;53.338;8.486;2022-08-01T06:33:06;8.77;;;2.50;;
64473;SDS011;50857;53.338;8.486;2022-08-01T06:35:33;10.60;;;2.40;;
64473;SDS011;50857;53.338;8.486;2022-08-01T06:38:00;11.52;;;2.95;;
64473;SDS011;50857;53.338;8.486;2022-08-01T06:40:29;7.97;;;2.40;;
64473;SDS011;50857;53.338;8.486;2022-08-01T06:42:55;8.60;;;2.58;;
64473;SDS011;50857;53.338;8.486;2022-08-01T06:45:21;9.88;;;2.33;;
64473;SDS011;50857;53.338;8.486;2022-08-01T06:47:49;11.10;;;2.75;;
64473;SDS011;50857;53.338;8.486;2022-08-01T06:50:16;8.57;;;1.88;;
64473;SDS011;50857;53.338;8.486;2022-08-01T06:52:42;7.65;;;2.13;;
64473;SDS011;50857;53.338;8.486;2022-08-01T06:55:09;9.35;;;2.22;;
64473;SDS011;50857;53.338;8.486;2022-08-01T06:57:42;8.15;;;2.50;;
64473;SDS011;50857;53.338;8.486;2022-08-01T07:00:11;9.45;;;2.42;;
64473;SDS011;50857;53.338;8.486;2022-08-01T07:02:38;10.23;;;2.78;;
64473;SDS011;50857;53.338;8.486;2022-08-01T07:05:04;13.05;;;2.40;;
64473;SDS011;50857;53.338;8.486;2022-08-01T07:07:31;8.90;;;2.60;;
64473;SDS011;50857;53.338;8.486;2022-08-01T07:09:57;9.40;;;2.40;;
64473;SDS011;50857;53.338;8.486;2022-08-01T07:12:24;9.13;;;2.17;;
64473;SDS011;50857;53.338;8.486;2022-08-01T07:14:52;9.52;;;2.65;;
64473;SDS011;50857;53.338;8.486;2022-08-01T07:17:18;12.13;;;2.47;;
64473;SDS011;50857;53.338;8.486;2022-08-01T07:19:45;11.25;;;2.25;;
64473;SDS011;50857;53.338;8.486;2022-08-01T07:22:12;11.43;;;2.40;;
64473;SDS011;50857;53.338;8.486;2022-08-01T07:24:39;8.43;;;1.85;;
64473;SDS011;50857;53.338;8.486;2022-08-01T07:27:06;10.05;;;2.35;;
64473;SDS011;50857;53.338;8.486;2022-08-01T07:29:33;7.28;;;1.92;;
64473;SDS011;50857;53.338;8.486;2022-08-01T07:32:01;10.70;;;1.98;;
64473;SDS011;50857;53.338;8.486;2022-08-01T07:34:27;9.35;;;1.95;;
64473;SDS011;50857;53.338;8.486;2022-08-01T07:36:53;8.80;;;2.13;;
64473;SDS011;50857;53.338;8.486;2022-08-01T07:39:20;10.32;;;1.95;;
64473;SDS011;50857;53.338;8.486;2022-08-01T07:41:47;11.05;;;2.13;;
64473;SDS011;50857;53.338;8.486;2022-08-01T07:44:13;8.55;;;1.90;;
64473;SDS011;50857;53.338;8.486;2022-08-01T07:46:40;12.80;;;2.42;;
64473;SDS011;50857;53.338;8.486;2022-08-01T07:49:08;8.68;;;2.13;;
64473;SDS011;50857;53.338;8.486;2022-08-01T07:51:34;10.80;;;2.40;;
64473;SDS011;50857;53.338;8.486;2022-08-01T07:54:01;12.32;;;1.90;;
64473;SDS011;50857;53.338;8.486;2022-08-01T07:56:27;10.38;;;2.20;;
64473;SDS011;50857;53.338;8.486;2022-08-01T07:58:54;13.13;;;2.60;;
64473;SDS011;50857;53.338;8.486;2022-08-01T08:01:20;10.40;;;2.10;;
64473;SDS011;50857;53.338;8.486;2022-08-01T08:03:47;10.65;;;2.00;;
64473;SDS011;50857;53.338;8.486;2022-08-01T08:06:14;8.80;;;1.80;;
64473;SDS011;50857;53.338;8.486;2022-08-01T08:08:41;7.15;;;1.70;;
64473;SDS011;50857;53.338;8.486;2022-08-01T08:11:07;11.48;;;2.00;;
64473;SDS011;50857;53.338;8.486;2022-08-01T08:13:34;7.65;;;1.73;;
64473;SDS011;50857;53.338;8.486;2022-08-01T08:16:00;8.57;;;2.00;;
64473;SDS011;50857;53.338;8.486;2022-08-01T08:18:27;12.52;;;2.17;;
64473;SDS011;50857;53.338;8.486;2022-08-01T08:20:53;10.82;;;2.10;;
64473;SDS011;50857;53.338;8.486;2022-08-01T08:23:21;29.67;;;3.88;;
64473;SDS011;50857;53.338;8.486;2022-08-01T08:26:05;36.13;;;4.20;;
64473;SDS011;50857;53.338;8.486;2022-08-01T08:28:32;44.97;;;3.92;;
64473;SDS011;50857;53.338;8.486;2022-08-01T08:30:58;50.03;;;4.35;;
64473;SDS011;50857;53.338;8.486;2022-08-01T08:33:24;36.45;;;4.18;;
64473;SDS011;50857;53.338;8.486;2022-08-01T08:35:51;33.28;;;4.18;;
64473;SDS011;50857;53.338;8.486;2022-08-01T08:38:20;17.35;;;2.78;;
64473;SDS011;50857;53.338;8.486;2022-08-01T08:40:47;16.38;;;3.08;;
64473;SDS011;50857;53.338;8.486;2022-08-01T08:43:13;30.27;;;2.83;;
64473;SDS011;50857;53.338;8.486;2022-08-01T08:45:41;8.35;;;1.60;;
64473;SDS011;50857;53.338;8.486;2022-08-01T08:48:08;12.63;;;2.20;;
64473;SDS011;50857;53.338;8.486;2022-08-01T08:50:34;7.57;;;1.55;;
64473;SDS011;50857;53.338;8.486;2022-08-01T08:53:02;9.02;;;1.92;;
64473;SDS011;50857;53.338;8.486;2022-08-01T08:55:30;9.88;;;1.77;;
64473;SDS011;50857;53.338;8.486;2022-08-01T08:57:57;6.82;;;1.60;;
64473;SDS011;50857;53.338;8.486;2022-08-01T09:00:25;8.65;;;1.55;;
64473;SDS011;50857;53.338;8.486;2022-08-01T09:02:52;9.43;;;1.70;;
64473;SDS011;50857;53.338;8.486;2022-08-01T09:05:21;8.45;;;1.70;;
64473;SDS011;50857;53.338;8.486;2022-08-01T09:07:50;9.27;;;1.70;;
64473;SDS011;50857;53.338;8.486;2022-08-01T09:10:17;9.93;;;1.63;;
64473;SDS011;50857;53.338;8.486;2022-08-01T09:15:30;11.75;;;1.80;;
64473;SDS011;50857;53.338;8.486;2022-08-01T09:18:03;8.77;;;1.98;;
64473;SDS011;50857;53.338;8.486;2022-08-01T09:20:29;9.15;;;1.42;;
64473;SDS011;50857;53.338;8.486;2022-08-01T09:22:56;10.73;;;1.63;;
64473;SDS011;50857;53.338;8.486;2022-08-01T09:25:22;9.57;;;1.80;;
64473;SDS011;50857;53.338;8.486;2022-08-01T09:27:49;9.43;;;1.65;;
64473;SDS011;50857;53.338;8.486;2022-08-01T09:30:30;8.82;;;1.70;;
64473;SDS011;50857;53.338;8.486;2022-08-01T09:33:04;11.55;;;2.13;;
64473;SDS011;50857;53.338;8.486;2022-08-01T09:35:31;9.45;;;1.77;;
64473;SDS011;50857;53.338;8.486;2022-08-01T09:38:11;9.70;;;1.80;;
64473;SDS011;50857;53.338;8.486;2022-08-01T09:40:47;9.73;;;1.92;;
64473;SDS011;50857;53.338;8.486;2022-08-01T09:43:15;9.88;;;1.83;;
64473;SDS011;50857;53.338;8.486;2022-08-01T09:45:43;9.52;;;1.85;;
64473;SDS011;50857;53.338;8.486;2022-08-01T09:48:11;11.07;;;1.90;;
64473;SDS011;50857;53.338;8.486;2022-08-01T09:50:38;9.45;;;1.70;;
64473;SDS011;50857;53.338;8.486;2022-08-01T09:53:05;9.48;;;1.88;;
64473;SDS011;50857;53.338;8.486;2022-08-01T09:55:31;7.57;;;1.70;;
64473;SDS011;50857;53.338;8.486;2022-08-01T09:57:58;8.70;;;1.50;;
64473;SDS011;50857;53.338;8.486;2022-08-01T10:00:26;8.98;;;2.10;;
64473;SDS011;50857;53.338;8.486;2022-08-01T10:02:54;8.32;;;1.65;;
64473;SDS011;50857;53.338;8.486;2022-08-01T10:05:29;7.57;;;1.60;;
64473;SDS011;50857;53.338;8.486;2022-08-01T10:07:56;8.68;;;1.45;;
64473;SDS011;50857;53.338;8.486;2022-08-01T10:10:23;7.78;;;1.70;;
64473;SDS011;50857;53.338;8.486;2022-08-01T10:12:50;7.25;;;1.70;;
64473;SDS011;50857;53.338;8.486;2022-08-01T10:15:17;9.10;;;2.15;;
64473;SDS011;50857;53.338;8.486;2022-08-01T10:17:46;8.88;;;1.60;;
64473;SDS011;50857;53.338;8.486;2022-08-01T10:20:14;7.30;;;1.52;;
64473;SDS011;50857;53.338;8.486;2022-08-01T10:22:40;8.30;;;1.38;;
64473;SDS011;50857;53.338;8.486;2022-08-01T10:25:10;6.93;;;1.70;;
64473;SDS011;50857;53.338;8.486;2022-08-01T10:27:39;6.47;;;1.45;;
64473;SDS011;50857;53.338;8.486;2022-08-01T10:30:10;9.50;;;2.05;;
64473;SDS011;50857;53.338;8.486;2022-08-01T10:32:37;7.50;;;1.70;;
64473;SDS011;50857;53.338;8.486;2022-08-01T10:35:05;9.98;;;1.60;;
64473;SDS011;50857;53.338;8.486;2022-08-01T10:37:33;7.47;;;1.55;;
64473;SDS011;50857;53.338;8.486;2022-08-01T10:40:00;5.75;;;1.55;;
64473;SDS011;50857;53.338;8.486;2022-08-01T10:42:26;7.20;;;2.05;;
64473;SDS011;50857;53.338;8.486;2022-08-01T10:44:53;7.85;;;1.80;;
64473;SDS011;50857;53.338;8.486;2022-08-01T10:47:21;8.95;;;1.80;;
64473;SDS011;50857;53.338;8.486;2022-08-01T10:49:51;6.38;;;1.40;;
64473;SDS011;50857;53.338;8.486;2022-08-01T10:52:19;7.07;;;1.42;;
64473;SDS011;50857;53.338;8.486;2022-08-01T10:54:47;5.65;;;1.33;;
64473;SDS011;50857;53.338;8.486;2022-08-01T10:57:14;9.40;;;1.52;;
64473;SDS011;50857;53.338;8.486;2022-08-01T10:59:47;8.75;;;1.45;;
64473;SDS011;50857;53.338;8.486;2022-08-01T11:02:19;6.47;;;1.60;;
64473;SDS011;50857;53.338;8.486;2022-08-01T11:04:54;6.50;;;1.67;;
64473;SDS011;50857;53.338;8.486;2022-08-01T11:07:21;7.30;;;1.60;;
64473;SDS011;50857;53.338;8.486;2022-08-01T11:09:58;8.32;;;1.58;;
64473;SDS011;50857;53.338;8.486;2022-08-01T11:12:37;9.82;;;1.58;;
64473;SDS011;50857;53.338;8.486;2022-08-01T11:17:50;9.38;;;1.42;;
64473;SDS011;50857;53.338;8.486;2022-08-01T11:20:17;7.88;;;1.63;;
64473;SDS011;50857;53.338;8.486;2022-08-01T11:28:24;7.10;;;1.40;;
64473;SDS011;50857;53.338;8.486;2022-08-01T11:30:52;6.60;;;1.40;;
64473;SDS011;50857;53.338;8.486;2022-08-01T11:33:47;6.47;;;1.30;;
64473;SDS011;50857;53.338;8.486;2022-08-01T11:36:18;9.48;;;1.65;;
64473;SDS011;50857;53.338;8.486;2022-08-01T11:38:46;7.97;;;1.50;;
64473;SDS011;50857;53.338;8.486;2022-08-01T11:41:14;7.53;;;1.50;;
64473;SDS011;50857;53.338;8.486;2022-08-01T11:52:08;9.85;;;1.80;;
64473;SDS011;50857;53.338;8.486;2022-08-01T11:54:35;5.93;;;1.70;;
64473;SDS011;50857;53.338;8.486;2022-08-01T11:57:03;6.30;;;1.50;;
64473;SDS011;50857;53.338;8.486;2022-08-01T11:59:34;8.38;;;1.80;;
64473;SDS011;50857;53.338;8.486;2022-08-01T12:02:01;7.45;;;1.70;;
64473;SDS011;50857;53.338;8.486;2022-08-01T12:07:12;8.80;;;1.85;;
64473;SDS011;50857;53.338;8.486;2022-08-01T12:09:39;7.15;;;1.80;;
64473;SDS011;50857;53.338;8.486;2022-08-01T12:12:05;6.97;;;1.50;;
64473;SDS011;50857;53.338;8.486;2022-08-01T12:14:32;9.95;;;1.60;;
64473;SDS011;50857;53.338;8.486;2022-08-01T12:16:59;7.32;;;1.60;;
64473;SDS011;50857;53.338;8.486;2022-08-01T12:19:25;7.38;;;1.63;;
64473;SDS011;50857;53.338;8.486;2022-08-01T12:22:04;7.47;;;1.63;;
64473;SDS011;50857;53.338;8.486;2022-08-01T12:24:33;7.22;;;1.33;;
64473;SDS011;50857;53.338;8.486;2022-08-01T12:26:59;5.65;;;1.40;;
64473;SDS011;50857;53.338;8.486;2022-08-01T12:29:36;7.60;;;1.60;;
64473;SDS011;50857;53.338;8.486;2022-08-01T12:32:03;11.88;;;2.00;;
64473;SDS011;50857;53.338;8.486;2022-08-01T12:34:30;8.23;;;1.67;;
64473;SDS011;50857;53.338;8.486;2022-08-01T12:37:00;6.55;;;1.42;;
64473;SDS011;50857;53.338;8.486;2022-08-01T12:39:30;8.63;;;1.83;;
64473;SDS011;50857;53.338;8.486;2022-08-01T12:41:59;7.95;;;1.60;;
64473;SDS011;50857;53.338;8.486;2022-08-01T12:44:25;9.32;;;1.70;;
64473;SDS011;50857;53.338;8.486;2022-08-01T12:46:52;7.63;;;1.60;;
64473;SDS011;50857;53.338;8.486;2022-08-01T12:49:19;7.45;;;1.60;;
64473;SDS011;50857;53.338;8.486;2022-08-01T12:51:46;7.85;;;1.70;;
64473;SDS011;50857;53.338;8.486;2022-08-01T12:54:13;7.47;;;1.45;;
64473;SDS011;50857;53.338;8.486;2022-08-01T12:56:39;8.02;;;1.63;;
64473;SDS011;50857;53.338;8.486;2022-08-01T12:59:20;6.68;;;1.63;;
64473;SDS011;50857;53.338;8.486;2022-08-01T13:01:49;7.93;;;1.50;;
64473;SDS011;50857;53.338;8.486;2022-08-01T13:04:15;5.97;;;1.50;;
64473;SDS011;50857;53.338;8.486;2022-08-01T13:06:42;9.23;;;1.77;;
64473;SDS011;50857;53.338;8.486;2022-08-01T13:09:08;6.57;;;1.75;;
64473;SDS011;50857;53.338;8.486;2022-08-01T13:11:35;8.57;;;2.05;;
64473;SDS011;50857;53.338;8.486;2022-08-01T13:14:02;9.00;;;1.63;;
64473;SDS011;50857;53.338;8.486;2022-08-01T13:16:29;5.72;;;1.73;;
64473;SDS011;50857;53.338;8.486;2022-08-01T13:18:56;9.52;;;1.60;;
64473;SDS011;50857;53.338;8.486;2022-08-01T13:21:23;7.78;;;1.88;;
64473;SDS011;50857;53.338;8.486;2022-08-01T13:24:00;7.18;;;1.58;;
64473;SDS011;50857;53.338;8.486;2022-08-01T13:26:39;5.63;;;1.40;;
64473;SDS011;50857;53.338;8.486;2022-08-01T13:29:07;6.35;;;1.40;;
64473;SDS011;50857;53.338;8.486;2022-08-01T13:31:36;5.47;;;1.50;;
64473;SDS011;50857;53.338;8.486;2022-08-01T13:34:02;5.90;;;1.80;;
64473;SDS011;50857;53.338;8.486;2022-08-01T13:36:29;6.68;;;1.67;;
64473;SDS011;50857;53.338;8.486;2022-08-01T13:38:56;7.93;;;1.75;;
64473;SDS011;50857;53.338;8.486;2022-08-01T13:41:40;6.35;;;1.55;;
64473;SDS011;50857;53.338;8.486;2022-08-01T13:44:06;6.57;;;1.63;;
64473;SDS011;50857;53.338;8.486;2022-08-01T13:46:35;7.63;;;1.90;;
64473;SDS011;50857;53.338;8.486;2022-08-01T13:49:02;6.68;;;1.80;;
64473;SDS011;50857;53.338;8.486;2022-08-01T13:51:29;5.93;;;1.63;;
64473;SDS011;50857;53.338;8.486;2022-08-01T13:53:55;6.55;;;1.65;;
64473;SDS011;50857;53.338;8.486;2022-08-01T13:56:22;6.32;;;1.40;;
64473;SDS011;50857;53.338;8.486;2022-08-01T13:58:49;7.05;;;1.50;;
64473;SDS011;50857;53.338;8.486;2022-08-01T14:01:16;6.80;;;1.70;;
64473;SDS011;50857;53.338;8.486;2022-08-01T14:03:44;6.28;;;1.58;;
64473;SDS011;50857;53.338;8.486;2022-08-01T14:06:11;6.13;;;1.48;;
64473;SDS011;50857;53.338;8.486;2022-08-01T14:08:39;7.68;;;1.80;;
64473;SDS011;50857;53.338;8.486;2022-08-01T14:11:05;7.47;;;1.65;;
64473;SDS011;50857;53.338;8.486;2022-08-01T14:13:32;7.13;;;1.83;;
64473;SDS011;50857;53.338;8.486;2022-08-01T14:15:59;5.75;;;1.30;;
64473;SDS011;50857;53.338;8.486;2022-08-01T14:18:25;8.95;;;1.73;;
64473;SDS011;50857;53.338;8.486;2022-08-01T14:20:53;7.32;;;1.70;;
64473;SDS011;50857;53.338;8.486;2022-08-01T14:23:20;8.25;;;1.50;;
64473;SDS011;50857;53.338;8.486;2022-08-01T14:25:46;9.98;;;1.77;;
64473;SDS011;50857;53.338;8.486;2022-08-01T14:28:13;8.70;;;1.85;;
64473;SDS011;50857;53.338;8.486;2022-08-01T14:30:40;8.23;;;1.77;;
64473;SDS011;50857;53.338;8.486;2022-08-01T14:33:07;7.95;;;1.80;;
64473;SDS011;50857;53.338;8.486;2022-08-01T14:35:34;6.53;;;1.40;;
64473;SDS011;50857;53.338;8.486;2022-08-01T14:38:02;5.38;;;1.40;;
64473;SDS011;50857;53.338;8.486;2022-08-01T14:40:29;7.10;;;1.60;;
64473;SDS011;50857;53.338;8.486;2022-08-01T14:42:55;5.80;;;1.50;;
64473;SDS011;50857;53.338;8.486;2022-08-01T14:45:22;7.72;;;1.85;;
64473;SDS011;50857;53.338;8.486;2022-08-01T14:47:48;6.90;;;1.40;;
64473;SDS011;50857;53.338;8.486;2022-08-01T14:50:15;5.75;;;1.77;;
64473;SDS011;50857;53.338;8.486;2022-08-01T14:52:42;7.30;;;2.00;;
64473;SDS011;50857;53.338;8.486;2022-08-01T14:55:10;7.60;;;1.95;;
64473;SDS011;50857;53.338;8.486;2022-08-01T14:57:38;6.32;;;1.58;;
64473;SDS011;50857;53.338;8.486;2022-08-01T15:00:05;5.85;;;1.70;;
64473;SDS011;50857;53.338;8.486;2022-08-01T15:02:32;7.20;;;1.67;;
64473;SDS011;50857;53.338;8.486;2022-08-01T15:04:59;4.45;;;1.42;;
64473;SDS011;50857;53.338;8.486;2022-08-01T15:07:26;7.38;;;1.60;;
64473;SDS011;50857;53.338;8.486;2022-08-01T15:09:52;7.25;;;1.60;;
64473;SDS011;50857;53.338;8.486;2022-08-01T15:12:20;7.28;;;1.42;;